createdAt,value
2018-05-31T00:01:31.307Z,59.11
2018-05-31T00:03:57.643Z,59.31
2018-05-31T00:06:23.941Z,59.87
2018-05-31T00:08:50.268Z,60.03
2018-05-31T00:11:17.403Z,60.15
2018-05-31T00:13:43.708Z,60.14
2018-05-31T00:16:10.022Z,60.38
2018-05-31T00:18:36.363Z,60.75
2018-05-31T00:21:02.716Z,61.06
2018-05-31T00:23:28.991Z,61.41
2018-05-31T00:25:56.057Z,61.53
2018-05-31T00:28:22.386Z,61.72
2018-05-31T00:30:49.408Z,62.10
2018-05-31T00:33:15.721Z,62.24
2018-05-31T00:35:42.053Z,62.03
2018-05-31T00:38:08.391Z,61.82
2018-05-31T00:40:34.713Z,61.95
2018-05-31T00:43:00.971Z,61.99
2018-05-31T00:45:28.267Z,61.89
2018-05-31T00:47:54.561Z,61.83
2018-05-31T00:50:21.572Z,61.79
2018-05-31T00:52:47.862Z,62.14
2018-05-31T00:55:14.174Z,62.04
2018-05-31T00:57:41.208Z,62.09
2018-05-31T01:00:08.293Z,62.23
2018-05-31T01:02:34.593Z,61.91
2018-05-31T01:05:01.685Z,61.71
2018-05-31T01:07:27.973Z,61.30
2018-05-31T01:09:55.010Z,61.88
2018-05-31T01:12:21.279Z,61.37
2018-05-31T01:14:47.651Z,61.74
2018-05-31T01:17:13.947Z,61.72
2018-05-31T01:19:40.308Z,61.27
2018-05-31T01:22:06.595Z,61.58
2018-05-31T01:24:32.965Z,61.66
2018-05-31T01:26:59.252Z,61.61
2018-05-31T01:29:25.573Z,61.82
2018-05-31T01:31:52.622Z,61.87
2018-05-31T01:34:19.668Z,61.81
2018-05-31T01:36:46.725Z,61.91
2018-05-31T01:39:17.126Z,61.94
2018-05-31T01:41:44.214Z,62.24
2018-05-31T01:44:10.498Z,62.63
2018-05-31T01:46:36.821Z,62.62
2018-05-31T01:49:03.109Z,62.54
2018-05-31T01:51:29.421Z,62.81
2018-05-31T01:53:56.452Z,63.05
2018-05-31T01:56:22.729Z,63.18
2018-05-31T01:58:49.068Z,63.07
2018-05-31T02:01:15.400Z,62.82
2018-05-31T02:03:41.776Z,62.88
2018-05-31T02:06:08.073Z,62.91
2018-05-31T02:08:34.552Z,63.35
2018-05-31T02:11:00.898Z,63.33
2018-05-31T02:13:28.004Z,63.41
2018-05-31T02:15:55.040Z,63.76
2018-05-31T02:18:21.393Z,63.77
2018-05-31T02:20:49.201Z,64.04
2018-05-31T02:23:15.489Z,64.54
2018-05-31T02:25:41.783Z,64.68
2018-05-31T02:28:08.079Z,64.97
2018-05-31T02:30:35.138Z,65.21
2018-05-31T02:33:01.454Z,65.37
2018-05-31T02:35:28.512Z,65.63
2018-05-31T02:37:54.785Z,66.16
2018-05-31T02:40:21.135Z,66.25
2018-05-31T02:42:47.745Z,66.08
2018-05-31T02:45:14.189Z,66.16
2018-05-31T02:47:40.551Z,66.49
2018-05-31T02:50:07.654Z,66.36
2018-05-31T02:52:33.984Z,66.45
2018-05-31T02:55:00.339Z,66.35
2018-05-31T02:57:26.646Z,66.13
2018-05-31T02:59:52.954Z,66.17
2018-05-31T03:02:19.213Z,66.05
2018-05-31T03:04:45.529Z,66.10
2018-05-31T03:07:11.816Z,66.01
2018-05-31T03:09:38.125Z,65.72
2018-05-31T03:12:04.449Z,65.62
2018-05-31T03:14:31.043Z,65.62
2018-05-31T03:16:58.095Z,65.47
2018-05-31T03:19:24.679Z,65.35
2018-05-31T03:21:51.115Z,65.07
2018-05-31T03:24:17.429Z,64.95
2018-05-31T03:26:52.666Z,64.83
2018-05-31T03:29:19.041Z,64.54
2018-05-31T03:31:46.078Z,64.71
2018-05-31T03:34:12.356Z,65.08
2018-05-31T03:36:38.711Z,65.05
2018-05-31T03:39:05.059Z,64.94
2018-05-31T03:41:31.399Z,64.73
2018-05-31T03:43:57.728Z,64.89
2018-05-31T03:46:24.094Z,64.78
2018-05-31T03:48:50.396Z,64.40
2018-05-31T03:51:16.695Z,64.11
2018-05-31T03:53:43.019Z,63.65
2018-05-31T03:56:09.375Z,63.31
2018-05-31T03:58:35.675Z,63.16
2018-05-31T04:01:02.006Z,62.57
2018-05-31T04:03:28.262Z,61.42
2018-05-31T04:05:54.567Z,60.86
2018-05-31T04:08:20.872Z,60.31
2018-05-31T04:10:47.977Z,60.52
2018-05-31T04:13:14.319Z,60.38
2018-05-31T04:15:40.603Z,60.38
2018-05-31T04:18:06.946Z,59.92
2018-05-31T04:20:33.298Z,59.75
2018-05-31T04:22:59.675Z,59.15
2018-05-31T04:25:26.755Z,58.99
2018-05-31T04:27:53.094Z,57.42
2018-05-31T04:30:19.411Z,56.06
2018-05-31T04:32:45.714Z,55.33
2018-05-31T04:35:12.744Z,55.44
2018-05-31T04:37:39.041Z,53.90
2018-05-31T04:40:05.326Z,53.12
2018-05-31T04:42:32.418Z,53.40
2018-05-31T04:44:59.489Z,53.01
2018-05-31T04:47:25.809Z,52.58
2018-05-31T04:49:52.139Z,52.15
2018-05-31T04:52:18.472Z,51.84
2018-05-31T04:54:44.800Z,51.85
2018-05-31T04:57:11.118Z,51.93
2018-05-31T04:59:37.369Z,50.73
2018-05-31T05:02:03.681Z,50.30
2018-05-31T05:04:30.011Z,49.89
2018-05-31T05:06:56.336Z,49.43
2018-05-31T05:09:22.684Z,49.11
2018-05-31T05:11:49.012Z,48.48
2018-05-31T05:14:15.285Z,48.28
2018-05-31T05:16:42.349Z,48.18
2018-05-31T05:19:08.642Z,48.35
2018-05-31T05:21:34.974Z,46.83
2018-05-31T05:24:01.266Z,46.33
2018-05-31T05:26:27.609Z,45.89
2018-05-31T05:28:53.897Z,46.18
2018-05-31T05:31:20.950Z,46.61
2018-05-31T05:33:47.959Z,46.56
2018-05-31T05:36:14.259Z,45.97
2018-05-31T05:38:40.539Z,46.24
2018-05-31T05:41:07.597Z,45.95
2018-05-31T05:43:34.655Z,45.12
2018-05-31T05:46:01.703Z,44.61
2018-05-31T05:48:28.028Z,44.30
2018-05-31T05:50:55.110Z,43.97
2018-05-31T05:53:21.410Z,44.26
2018-05-31T05:55:48.440Z,43.43
2018-05-31T05:58:14.729Z,43.50
2018-05-31T06:00:41.017Z,43.55
2018-05-31T06:03:08.054Z,43.29
2018-05-31T06:05:35.075Z,43.66
2018-05-31T06:08:01.407Z,43.57
2018-05-31T06:10:27.682Z,43.10
2018-05-31T06:12:53.977Z,42.15
2018-05-31T06:15:20.309Z,41.75
2018-05-31T06:17:46.657Z,40.47
2018-05-31T06:20:13.744Z,40.12
2018-05-31T06:22:40.098Z,39.40
2018-05-31T06:25:06.519Z,39.92
2018-05-31T06:27:32.866Z,39.50
2018-05-31T06:29:59.234Z,39.97
2018-05-31T06:32:25.566Z,38.96
2018-05-31T06:34:52.571Z,39.33
2018-05-31T06:37:18.903Z,38.42
2018-05-31T06:39:45.195Z,39.05
2018-05-31T06:42:12.267Z,38.62
2018-05-31T06:44:38.569Z,38.25
2018-05-31T06:47:05.633Z,38.29
2018-05-31T06:49:31.922Z,38.45
2018-05-31T06:51:58.280Z,38.32
2018-05-31T06:54:25.358Z,38.12
2018-05-31T06:56:51.633Z,37.73
2018-05-31T06:59:17.919Z,37.31
2018-05-31T07:01:44.204Z,37.53
2018-05-31T07:04:10.483Z,37.01
2018-05-31T07:06:36.798Z,37.19
2018-05-31T07:09:03.086Z,37.43
2018-05-31T07:11:29.365Z,37.94
2018-05-31T07:13:55.663Z,37.26
2018-05-31T07:16:22.685Z,37.32
2018-05-31T07:18:48.929Z,37.48
2018-05-31T07:21:15.255Z,38.70
2018-05-31T07:23:41.571Z,38.25
2018-05-31T07:26:07.842Z,37.62
2018-05-31T07:28:34.204Z,38.43
2018-05-31T07:31:00.549Z,38.22
2018-05-31T07:33:26.861Z,37.74
2018-05-31T07:35:53.166Z,37.75
2018-05-31T07:38:20.185Z,37.71
2018-05-31T07:40:47.498Z,37.73
2018-05-31T07:43:13.822Z,37.43
2018-05-31T07:45:40.112Z,36.83
2018-05-31T07:48:07.200Z,38.01
2018-05-31T07:50:33.545Z,37.87
2018-05-31T07:52:59.854Z,36.83
2018-05-31T07:55:27.143Z,36.29
2018-05-31T07:57:53.484Z,35.32
2018-05-31T08:00:19.786Z,35.33
2018-05-31T08:02:46.102Z,35.39
2018-05-31T08:05:13.007Z,35.71
2018-05-31T08:07:39.427Z,35.43
2018-05-31T08:10:05.732Z,35.10
2018-05-31T08:12:32.055Z,35.09
2018-05-31T08:14:58.333Z,34.80
2018-05-31T08:17:24.623Z,35.45
2018-05-31T08:19:50.945Z,34.98
2018-05-31T08:22:17.305Z,35.20
2018-05-31T08:24:43.661Z,35.72
2018-05-31T08:27:09.986Z,35.19
2018-05-31T08:29:36.369Z,34.54
2018-05-31T08:32:02.647Z,35.24
2018-05-31T08:34:28.910Z,34.15
2018-05-31T08:36:55.953Z,34.37
2018-05-31T08:39:22.960Z,34.46
2018-05-31T08:41:49.252Z,33.69
2018-05-31T08:44:15.570Z,34.29
2018-05-31T08:46:41.849Z,34.24
2018-05-31T08:49:08.156Z,34.01
2018-05-31T08:51:34.482Z,33.99
2018-05-31T08:54:00.795Z,33.43
2018-05-31T08:56:27.098Z,33.98
2018-05-31T08:58:53.448Z,33.79
2018-05-31T09:01:20.513Z,33.14
2018-05-31T09:03:46.862Z,32.94
2018-05-31T09:06:13.150Z,33.16
2018-05-31T09:08:40.211Z,33.71
2018-05-31T09:11:08.237Z,33.18
2018-05-31T09:13:34.498Z,34.63
2018-05-31T09:16:01.536Z,32.82
2018-05-31T09:18:28.443Z,33.02
2018-05-31T09:20:54.749Z,33.25
2018-05-31T09:23:21.057Z,32.24
2018-05-31T09:25:48.116Z,32.14
2018-05-31T09:28:14.429Z,32.62
2018-05-31T09:30:41.495Z,31.79
2018-05-31T09:33:09.347Z,33.39
2018-05-31T09:35:36.430Z,32.11
2018-05-31T09:38:02.750Z,33.75
2018-05-31T09:40:29.070Z,33.10
2018-05-31T09:42:56.105Z,32.72
2018-05-31T09:45:22.374Z,32.84
2018-05-31T09:47:48.675Z,32.52
2018-05-31T09:50:15.825Z,31.88
2018-05-31T09:52:42.900Z,32.16
2018-05-31T09:55:09.193Z,31.46
2018-05-31T09:57:35.473Z,31.63
2018-05-31T10:00:01.814Z,31.71
2018-05-31T10:02:28.108Z,31.63
2018-05-31T10:04:54.430Z,31.64
2018-05-31T10:07:21.483Z,31.22
2018-05-31T10:09:48.563Z,32.06
2018-05-31T10:12:14.898Z,31.02
2018-05-31T10:14:41.207Z,31.66
2018-05-31T10:17:07.498Z,31.09
2018-05-31T10:19:33.824Z,30.36
2018-05-31T10:22:00.168Z,30.89
2018-05-31T10:24:26.457Z,30.61
2018-05-31T10:26:52.805Z,30.66
2018-05-31T10:29:19.635Z,30.41
2018-05-31T10:31:45.943Z,29.40
2018-05-31T10:34:12.278Z,30.13
2018-05-31T10:36:38.610Z,29.67
2018-05-31T10:39:04.905Z,30.13
2018-05-31T10:41:32.018Z,29.55
2018-05-31T10:43:58.300Z,30.25
2018-05-31T10:46:25.160Z,29.74
2018-05-31T10:48:51.463Z,29.67
2018-05-31T10:51:18.857Z,30.19
2018-05-31T10:53:45.164Z,30.13
2018-05-31T10:56:12.226Z,30.34
2018-05-31T10:58:38.512Z,29.97
2018-05-31T11:01:04.903Z,30.10
2018-05-31T11:03:31.198Z,29.79
2018-05-31T11:05:58.264Z,29.27
2018-05-31T11:08:24.535Z,28.93
2018-05-31T11:10:52.289Z,28.71
2018-05-31T11:13:18.583Z,29.32
2018-05-31T11:15:44.934Z,29.41
2018-05-31T11:18:11.220Z,29.35
2018-05-31T11:20:38.463Z,29.26
2018-05-31T11:23:04.822Z,29.04
2018-05-31T11:25:31.194Z,28.47
2018-05-31T11:27:57.509Z,27.73
2018-05-31T11:30:23.837Z,27.61
2018-05-31T11:32:50.167Z,27.96
2018-05-31T11:35:16.460Z,28.52
2018-05-31T11:37:44.109Z,27.36
2018-05-31T11:40:10.479Z,28.06
2018-05-31T11:42:36.850Z,26.75
2018-05-31T11:45:03.155Z,25.77
2018-05-31T11:47:29.476Z,26.52
2018-05-31T11:49:55.805Z,25.60
2018-05-31T11:52:22.183Z,24.05
2018-05-31T11:54:48.482Z,22.88
2018-05-31T11:57:14.783Z,21.69
2018-05-31T11:59:41.846Z,19.01
2018-05-31T12:02:08.119Z,17.26
2018-05-31T12:04:34.459Z,16.29
2018-05-31T12:07:00.787Z,14.34
2018-05-31T12:09:27.132Z,13.60
2018-05-31T12:11:54.231Z,12.22
2018-05-31T12:14:20.556Z,11.54
2018-05-31T12:16:46.874Z,11.12
2018-05-31T12:19:13.935Z,10.83
2018-05-31T12:21:40.220Z,10.52
2018-05-31T12:24:06.493Z,9.62
2018-05-31T12:26:32.783Z,9.65
2018-05-31T12:28:59.056Z,8.04
2018-05-31T12:31:25.322Z,6.66
2018-05-31T12:33:51.584Z,6.52
2018-05-31T12:36:18.626Z,7.31
2018-05-31T12:38:44.972Z,7.59
2018-05-31T12:41:11.999Z,6.84
2018-05-31T12:43:38.319Z,7.24
2018-05-31T12:46:04.617Z,7.04
2018-05-31T12:48:30.912Z,7.36
2018-05-31T12:50:57.972Z,6.27
2018-05-31T12:53:24.276Z,6.20
2018-05-31T12:55:50.629Z,6.04
2018-05-31T12:58:16.899Z,5.53
2018-05-31T13:00:43.206Z,5.56
2018-05-31T13:03:09.543Z,5.41
2018-05-31T13:05:35.893Z,5.90
2018-05-31T13:08:02.176Z,6.50
2018-05-31T13:10:29.167Z,6.11
2018-05-31T13:12:55.493Z,6.22
2018-05-31T13:15:21.788Z,5.57
2018-05-31T13:17:48.827Z,5.57
2018-05-31T13:20:15.885Z,4.86
2018-05-31T13:22:42.960Z,5.48
2018-05-31T13:25:09.294Z,5.02
2018-05-31T13:27:35.614Z,5.39
2018-05-31T13:30:01.881Z,5.83
2018-05-31T13:32:28.205Z,5.34
2018-05-31T13:34:54.505Z,5.15
2018-05-31T13:37:20.800Z,4.99
2018-05-31T13:39:47.066Z,4.87
2018-05-31T13:42:13.418Z,4.48
2018-05-31T13:44:39.673Z,4.28
2018-05-31T13:47:05.960Z,4.01
2018-05-31T13:49:32.257Z,4.00
2018-05-31T13:51:59.331Z,4.44
2018-05-31T13:54:25.678Z,4.55
2018-05-31T13:56:52.087Z,5.01
2018-05-31T13:59:19.123Z,4.75
2018-05-31T14:01:46.192Z,5.20
2018-05-31T14:04:12.543Z,4.89
2018-05-31T14:06:38.893Z,4.87
2018-05-31T14:09:05.266Z,5.19
2018-05-31T14:11:32.356Z,5.19
2018-05-31T14:13:58.645Z,5.67
2018-05-31T14:16:25.665Z,4.90
2018-05-31T14:18:51.947Z,4.69
2018-05-31T14:21:18.614Z,4.11
2018-05-31T14:23:51.834Z,3.95
2018-05-31T14:26:18.130Z,4.08
2018-05-31T14:28:44.455Z,4.16
2018-05-31T14:31:10.725Z,4.92
2018-05-31T14:33:37.048Z,5.43
2018-05-31T14:36:03.327Z,4.74
2018-05-31T14:38:29.637Z,4.53
2018-05-31T14:40:56.683Z,6.09
2018-05-31T14:43:23.767Z,7.18
2018-05-31T14:45:50.101Z,6.68
2018-05-31T14:48:16.410Z,6.10
2018-05-31T14:50:43.461Z,4.93
2018-05-31T14:53:09.782Z,4.06
2018-05-31T14:55:36.805Z,3.95
2018-05-31T14:58:03.125Z,4.41
2018-05-31T15:00:29.447Z,5.93
2018-05-31T15:02:55.749Z,5.19
2018-05-31T15:05:22.055Z,5.48
2018-05-31T15:07:49.092Z,4.84
2018-05-31T15:10:16.118Z,4.25
2018-05-31T15:12:42.418Z,4.07
2018-05-31T15:15:08.733Z,4.60
2018-05-31T15:17:35.079Z,4.19
2018-05-31T15:20:01.411Z,3.94
2018-05-31T15:22:27.829Z,4.44
2018-05-31T15:24:54.172Z,4.12
2018-05-31T15:27:20.433Z,4.18
2018-05-31T15:29:46.763Z,4.01
2018-05-31T15:32:13.099Z,3.77
2018-05-31T15:34:39.396Z,3.89
2018-05-31T15:37:05.722Z,4.00
2018-05-31T15:39:32.035Z,3.84
2018-05-31T15:41:59.082Z,3.72
2018-05-31T15:44:26.178Z,4.13
2018-05-31T15:46:52.485Z,4.49
2018-05-31T15:49:18.798Z,4.89
2018-05-31T15:51:45.093Z,5.40
2018-05-31T15:54:11.354Z,7.28
2018-05-31T15:56:37.912Z,7.57
2018-05-31T15:59:04.239Z,7.36
2018-05-31T16:01:30.551Z,7.18
2018-05-31T16:03:57.658Z,8.27
2018-05-31T16:06:23.986Z,9.40
2018-05-31T16:08:50.332Z,10.86
2018-05-31T16:11:16.630Z,12.76
2018-05-31T16:13:42.988Z,12.73
2018-05-31T16:16:09.308Z,13.92
2018-05-31T16:18:35.622Z,14.56
2018-05-31T16:21:01.919Z,15.87
2018-05-31T16:23:29.009Z,15.86
2018-05-31T16:25:55.302Z,16.21
2018-05-31T16:28:21.608Z,17.06
2018-05-31T16:30:47.834Z,18.04
2018-05-31T16:33:14.133Z,18.70
2018-05-31T16:35:40.430Z,18.87
2018-05-31T16:38:06.731Z,19.16
2018-05-31T16:40:33.782Z,19.46
2018-05-31T16:43:00.870Z,19.58
2018-05-31T16:45:27.175Z,19.71
2018-05-31T16:47:54.226Z,19.86
2018-05-31T16:50:20.495Z,20.57
2018-05-31T16:52:46.761Z,20.91
2018-05-31T16:55:13.055Z,20.68
2018-05-31T16:57:39.334Z,21.11
2018-05-31T17:00:06.378Z,22.24
2018-05-31T17:02:33.429Z,21.82
2018-05-31T17:05:00.502Z,22.85
2018-05-31T17:07:26.779Z,23.05
2018-05-31T17:09:53.057Z,23.09
2018-05-31T17:12:19.411Z,23.57
2018-05-31T17:14:45.710Z,22.95
2018-05-31T17:17:12.797Z,23.06
2018-05-31T17:19:39.081Z,23.92
2018-05-31T17:22:06.158Z,23.75
2018-05-31T17:24:32.480Z,24.05
2018-05-31T17:26:58.735Z,24.06
2018-05-31T17:29:25.081Z,24.28
2018-05-31T17:31:51.401Z,24.57
2018-05-31T17:34:17.700Z,25.34
2018-05-31T17:36:44.006Z,26.08
2018-05-31T17:39:10.313Z,26.85
2018-05-31T17:41:36.670Z,27.12
2018-05-31T17:44:03.744Z,27.42
2018-05-31T17:46:30.056Z,28.52
2018-05-31T17:48:57.157Z,28.02
2018-05-31T17:51:23.452Z,28.11
2018-05-31T17:53:56.828Z,30.14
2018-05-31T17:56:23.879Z,30.67
2018-05-31T17:58:50.965Z,29.00
2018-05-31T18:01:17.260Z,30.10
2018-05-31T18:03:43.556Z,31.44
2018-05-31T18:06:09.840Z,32.04
2018-05-31T18:08:36.444Z,32.66
2018-05-31T18:11:02.718Z,32.92
2018-05-31T18:13:29.024Z,33.74
2018-05-31T18:15:56.063Z,34.20
2018-05-31T18:18:23.183Z,34.15
2018-05-31T18:20:49.566Z,34.23
2018-05-31T18:23:15.839Z,34.97
2018-05-31T18:25:43.192Z,34.71
2018-05-31T18:28:09.487Z,34.85
2018-05-31T18:30:35.849Z,35.23
2018-05-31T18:33:02.229Z,35.48
2018-05-31T18:35:28.619Z,35.40
2018-05-31T18:37:54.930Z,34.53
2018-05-31T18:40:21.268Z,34.25
2018-05-31T18:42:47.528Z,34.47
2018-05-31T18:45:13.852Z,35.02
2018-05-31T18:47:40.340Z,35.49
2018-05-31T18:50:06.683Z,35.54
2018-05-31T18:52:33.044Z,37.03
2018-05-31T18:54:59.415Z,36.31
2018-05-31T18:57:26.473Z,36.33
2018-05-31T18:59:52.754Z,36.80
2018-05-31T19:02:19.196Z,37.09
2018-05-31T19:04:45.542Z,36.76
2018-05-31T19:07:12.203Z,36.76
2018-05-31T19:09:39.269Z,36.46
2018-05-31T19:12:05.634Z,37.98
2018-05-31T19:14:31.946Z,37.45
2018-05-31T19:16:58.236Z,37.70
2018-05-31T19:19:31.467Z,39.08
2018-05-31T19:21:57.813Z,40.05
2018-05-31T19:24:30.241Z,41.14
2018-05-31T19:26:57.353Z,41.87
2018-05-31T19:29:23.654Z,42.16
2018-05-31T19:31:50.001Z,42.24
2018-05-31T19:34:16.315Z,42.35
2018-05-31T19:36:48.772Z,42.47
2018-05-31T19:39:15.825Z,42.58
2018-05-31T19:41:42.117Z,42.61
2018-05-31T19:44:14.581Z,42.63
2018-05-31T19:46:40.936Z,42.80
2018-05-31T19:49:07.377Z,42.95
2018-05-31T19:51:40.630Z,42.93
2018-05-31T19:54:06.933Z,43.35
2018-05-31T19:56:33.233Z,43.69
2018-05-31T19:59:06.484Z,44.07
2018-05-31T20:01:38.910Z,44.43
2018-05-31T20:04:06.009Z,44.74
2018-05-31T20:06:32.347Z,44.97
2018-05-31T20:08:58.649Z,44.72
2018-05-31T20:11:25.010Z,44.14
2018-05-31T20:13:51.308Z,43.91
2018-05-31T20:16:17.575Z,44.09
2018-05-31T20:18:43.923Z,43.87
2018-05-31T20:21:10.200Z,43.67
2018-05-31T20:23:36.552Z,44.17
2018-05-31T20:26:02.975Z,43.88
2018-05-31T20:28:29.322Z,43.97
2018-05-31T20:30:56.492Z,44.58
2018-05-31T20:33:22.783Z,45.07
2018-05-31T20:35:49.135Z,45.99
2018-05-31T20:38:15.442Z,46.61
2018-05-31T20:40:41.871Z,47.20
2018-05-31T20:43:08.188Z,47.92
2018-05-31T20:45:34.471Z,48.27
2018-05-31T20:48:00.789Z,49.31
2018-05-31T20:50:27.093Z,49.83
2018-05-31T20:52:53.371Z,49.91
2018-05-31T20:55:19.650Z,49.91
2018-05-31T20:57:45.906Z,50.10
2018-05-31T21:00:12.211Z,50.13
2018-05-31T21:02:38.505Z,50.28
2018-05-31T21:05:06.650Z,50.64
2018-05-31T21:07:32.982Z,50.64
2018-05-31T21:09:59.306Z,51.09
2018-05-31T21:12:25.707Z,50.96
2018-05-31T21:14:52.007Z,50.80
2018-05-31T21:17:19.030Z,50.91
2018-05-31T21:19:45.334Z,50.35
2018-05-31T21:22:11.573Z,49.95
2018-05-31T21:24:37.920Z,49.76
2018-05-31T21:27:04.217Z,49.63
2018-05-31T21:29:30.505Z,49.48
2018-05-31T21:31:57.570Z,49.82
2018-05-31T21:34:23.851Z,49.92
2018-05-31T21:36:50.137Z,49.92
2018-05-31T21:39:16.703Z,49.69
2018-05-31T21:41:42.925Z,49.75
2018-05-31T21:44:09.207Z,50.08
2018-05-31T21:46:35.506Z,50.19
2018-05-31T21:49:01.810Z,50.25
2018-05-31T21:51:28.121Z,50.26
2018-05-31T21:53:54.376Z,50.60
2018-05-31T21:56:20.699Z,50.90
2018-05-31T21:58:46.982Z,51.10
2018-05-31T22:01:13.294Z,51.26
2018-05-31T22:03:39.583Z,51.35
2018-05-31T22:06:05.894Z,51.52
2018-05-31T22:08:32.940Z,51.86
2018-05-31T22:11:00.000Z,51.74
2018-05-31T22:13:27.250Z,51.85
2018-05-31T22:15:53.912Z,52.31
2018-05-31T22:18:20.443Z,52.12
2018-05-31T22:20:46.900Z,52.02
2018-05-31T22:23:13.343Z,52.34
2018-05-31T22:25:40.597Z,52.41
2018-05-31T22:28:07.066Z,52.66
2018-05-31T22:30:34.252Z,53.25
2018-05-31T22:33:00.729Z,53.92
2018-05-31T22:35:27.102Z,54.06
2018-05-31T22:37:53.666Z,54.41
2018-05-31T22:40:20.253Z,54.56
2018-05-31T22:42:46.713Z,54.75
2018-05-31T22:45:13.386Z,54.90
2018-05-31T22:47:39.658Z,55.19
2018-05-31T22:50:07.023Z,55.63
2018-05-31T22:52:34.085Z,56.19
2018-05-31T22:55:00.473Z,56.56
2018-05-31T22:57:26.905Z,56.55
2018-05-31T22:59:54.712Z,56.73
2018-05-31T23:02:21.803Z,57.00
2018-05-31T23:04:48.103Z,56.97
2018-05-31T23:07:14.383Z,57.01
2018-05-31T23:09:40.684Z,56.87
2018-05-31T23:12:06.970Z,57.07
2018-05-31T23:14:34.018Z,56.36
2018-05-31T23:17:01.066Z,56.48
2018-05-31T23:19:28.081Z,56.24
2018-05-31T23:21:54.343Z,56.38
2018-05-31T23:24:21.368Z,56.75
2018-05-31T23:26:47.723Z,57.15
2018-05-31T23:29:14.768Z,57.19
2018-05-31T23:31:41.816Z,57.47
2018-05-31T23:34:08.814Z,57.53
2018-05-31T23:36:35.397Z,57.69
2018-05-31T23:39:02.457Z,57.92
2018-05-31T23:41:29.467Z,58.08
2018-05-31T23:43:55.830Z,58.23
2018-05-31T23:46:22.902Z,57.86
2018-05-31T23:48:49.180Z,58.05
2018-05-31T23:51:15.457Z,58.03
2018-05-31T23:53:41.741Z,58.33
2018-05-31T23:56:08.041Z,58.10
2018-05-31T23:58:34.351Z,57.75
